sensor_id;sensor_type;location;lat;lon;timestamp;P1;durP1;ratioP1;P2;durP2;ratioP2
10900;SDS011;5503;53.208;10.392;2023-10-08T00:01:02;2.30;;;0.70;;
10900;SDS011;5503;53.208;10.392;2023-10-08T00:03:31;2.50;;;0.80;;
10900;SDS011;5503;53.208;10.392;2023-10-08T00:05:58;2.50;;;0.80;;
10900;SDS011;5503;53.208;10.392;2023-10-08T00:08:25;2.60;;;0.80;;
10900;SDS011;5503;53.208;10.392;2023-10-08T00:10:52;2.20;;;0.60;;
10900;SDS011;5503;53.208;10.392;2023-10-08T00:13:19;2.47;;;0.80;;
10900;SDS011;5503;53.208;10.392;2023-10-08T00:15:48;2.40;;;0.68;;
10900;SDS011;5503;53.208;10.392;2023-10-08T00:18:17;2.40;;;0.80;;
10900;SDS011;5503;53.208;10.392;2023-10-08T00:20:44;2.60;;;0.80;;
10900;SDS011;5503;53.208;10.392;2023-10-08T00:23:14;2.20;;;0.70;;
10900;SDS011;5503;53.208;10.392;2023-10-08T00:25:42;2.42;;;0.80;;
10900;SDS011;5503;53.208;10.392;2023-10-08T00:28:12;2.50;;;0.80;;
10900;SDS011;5503;53.208;10.392;2023-10-08T00:30:39;2.40;;;0.80;;
10900;SDS011;5503;53.208;10.392;2023-10-08T00:33:09;2.50;;;0.80;;
10900;SDS011;5503;53.208;10.392;2023-10-08T00:35:37;2.40;;;0.80;;
10900;SDS011;5503;53.208;10.392;2023-10-08T00:38:05;2.60;;;0.90;;
10900;SDS011;5503;53.208;10.392;2023-10-08T00:40:40;2.50;;;0.82;;
10900;SDS011;5503;53.208;10.392;2023-10-08T00:43:11;2.40;;;0.73;;
10900;SDS011;5503;53.208;10.392;2023-10-08T00:45:53;2.25;;;0.60;;
10900;SDS011;5503;53.208;10.392;2023-10-08T00:48:22;2.40;;;0.80;;
10900;SDS011;5503;53.208;10.392;2023-10-08T00:50:53;2.40;;;0.80;;
10900;SDS011;5503;53.208;10.392;2023-10-08T00:53:34;2.50;;;0.80;;
10900;SDS011;5503;53.208;10.392;2023-10-08T00:56:04;2.47;;;0.73;;
10900;SDS011;5503;53.208;10.392;2023-10-08T00:58:37;2.50;;;0.80;;
10900;SDS011;5503;53.208;10.392;2023-10-08T01:01:05;2.47;;;0.80;;
10900;SDS011;5503;53.208;10.392;2023-10-08T01:03:37;2.60;;;0.80;;
10900;SDS011;5503;53.208;10.392;2023-10-08T01:06:09;2.50;;;0.90;;
10900;SDS011;5503;53.208;10.392;2023-10-08T01:08:37;2.35;;;0.73;;
10900;SDS011;5503;53.208;10.392;2023-10-08T01:11:18;2.53;;;0.80;;
10900;SDS011;5503;53.208;10.392;2023-10-08T01:13:51;2.27;;;0.70;;
10900;SDS011;5503;53.208;10.392;2023-10-08T01:16:20;2.13;;;0.65;;
10900;SDS011;5503;53.208;10.392;2023-10-08T01:18:48;2.40;;;0.70;;
10900;SDS011;5503;53.208;10.392;2023-10-08T01:21:19;2.58;;;0.80;;
10900;SDS011;5503;53.208;10.392;2023-10-08T01:24:06;2.60;;;0.80;;
10900;SDS011;5503;53.208;10.392;2023-10-08T01:26:33;2.50;;;0.80;;
10900;SDS011;5503;53.208;10.392;2023-10-08T01:28:59;2.50;;;0.88;;
10900;SDS011;5503;53.208;10.392;2023-10-08T01:31:32;2.50;;;0.80;;
10900;SDS011;5503;53.208;10.392;2023-10-08T01:33:59;2.67;;;0.95;;
10900;SDS011;5503;53.208;10.392;2023-10-08T01:36:29;2.40;;;0.70;;
10900;SDS011;5503;53.208;10.392;2023-10-08T01:38:57;2.33;;;0.70;;
10900;SDS011;5503;53.208;10.392;2023-10-08T01:41:28;2.30;;;0.65;;
10900;SDS011;5503;53.208;10.392;2023-10-08T01:43:55;2.40;;;0.70;;
10900;SDS011;5503;53.208;10.392;2023-10-08T01:46:24;2.10;;;0.60;;
10900;SDS011;5503;53.208;10.392;2023-10-08T01:48:52;2.42;;;0.80;;
10900;SDS011;5503;53.208;10.392;2023-10-08T01:51:25;2.40;;;0.80;;
10900;SDS011;5503;53.208;10.392;2023-10-08T01:54:02;2.20;;;0.70;;
10900;SDS011;5503;53.208;10.392;2023-10-08T01:56:37;2.40;;;0.80;;
10900;SDS011;5503;53.208;10.392;2023-10-08T01:59:06;2.25;;;0.70;;
10900;SDS011;5503;53.208;10.392;2023-10-08T02:01:34;2.50;;;0.80;;
10900;SDS011;5503;53.208;10.392;2023-10-08T02:04:02;2.10;;;0.60;;
10900;SDS011;5503;53.208;10.392;2023-10-08T02:06:29;2.40;;;0.70;;
10900;SDS011;5503;53.208;10.392;2023-10-08T02:08:56;2.30;;;0.70;;
10900;SDS011;5503;53.208;10.392;2023-10-08T02:13:55;2.33;;;0.70;;
10900;SDS011;5503;53.208;10.392;2023-10-08T02:16:22;2.40;;;0.70;;
10900;SDS011;5503;53.208;10.392;2023-10-08T02:18:49;2.50;;;0.80;;
10900;SDS011;5503;53.208;10.392;2023-10-08T02:21:16;2.30;;;0.70;;
10900;SDS011;5503;53.208;10.392;2023-10-08T02:23:44;2.45;;;0.80;;
10900;SDS011;5503;53.208;10.392;2023-10-08T02:26:11;2.17;;;0.60;;
10900;SDS011;5503;53.208;10.392;2023-10-08T02:28:39;2.20;;;0.70;;
10900;SDS011;5503;53.208;10.392;2023-10-08T02:31:08;2.40;;;0.70;;
10900;SDS011;5503;53.208;10.392;2023-10-08T02:33:35;2.40;;;0.70;;
10900;SDS011;5503;53.208;10.392;2023-10-08T02:36:03;2.25;;;0.60;;
10900;SDS011;5503;53.208;10.392;2023-10-08T02:38:30;2.47;;;0.77;;
10900;SDS011;5503;53.208;10.392;2023-10-08T02:41:03;2.20;;;0.60;;
10900;SDS011;5503;53.208;10.392;2023-10-08T02:43:32;2.20;;;0.70;;
10900;SDS011;5503;53.208;10.392;2023-10-08T02:46:01;2.50;;;0.80;;
10900;SDS011;5503;53.208;10.392;2023-10-08T02:48:33;2.22;;;0.63;;
10900;SDS011;5503;53.208;10.392;2023-10-08T02:51:01;2.60;;;0.90;;
10900;SDS011;5503;53.208;10.392;2023-10-08T02:53:38;2.50;;;0.80;;
10900;SDS011;5503;53.208;10.392;2023-10-08T02:56:07;2.30;;;0.60;;
10900;SDS011;5503;53.208;10.392;2023-10-08T02:58:38;2.30;;;0.70;;
10900;SDS011;5503;53.208;10.392;2023-10-08T03:01:06;2.17;;;0.60;;
10900;SDS011;5503;53.208;10.392;2023-10-08T03:03:39;2.50;;;0.80;;
10900;SDS011;5503;53.208;10.392;2023-10-08T03:06:07;2.40;;;0.80;;
10900;SDS011;5503;53.208;10.392;2023-10-08T03:08:39;2.40;;;0.75;;
10900;SDS011;5503;53.208;10.392;2023-10-08T03:11:08;2.60;;;0.80;;
10900;SDS011;5503;53.208;10.392;2023-10-08T03:13:42;2.58;;;0.80;;
10900;SDS011;5503;53.208;10.392;2023-10-08T03:16:12;2.50;;;0.80;;
10900;SDS011;5503;53.208;10.392;2023-10-08T03:18:40;2.47;;;0.73;;
10900;SDS011;5503;53.208;10.392;2023-10-08T03:21:10;2.20;;;0.70;;
10900;SDS011;5503;53.208;10.392;2023-10-08T03:23:47;2.40;;;0.70;;
10900;SDS011;5503;53.208;10.392;2023-10-08T03:26:16;2.42;;;0.70;;
10900;SDS011;5503;53.208;10.392;2023-10-08T03:28:59;2.53;;;0.90;;
10900;SDS011;5503;53.208;10.392;2023-10-08T03:31:31;2.20;;;0.70;;
10900;SDS011;5503;53.208;10.392;2023-10-08T03:34:17;2.40;;;0.70;;
10900;SDS011;5503;53.208;10.392;2023-10-08T03:36:45;2.42;;;0.77;;
10900;SDS011;5503;53.208;10.392;2023-10-08T03:39:14;2.40;;;0.70;;
10900;SDS011;5503;53.208;10.392;2023-10-08T03:41:44;2.40;;;0.70;;
10900;SDS011;5503;53.208;10.392;2023-10-08T03:44:24;2.23;;;0.70;;
10900;SDS011;5503;53.208;10.392;2023-10-08T03:46:54;2.58;;;0.82;;
10900;SDS011;5503;53.208;10.392;2023-10-08T03:49:23;2.60;;;0.90;;
10900;SDS011;5503;53.208;10.392;2023-10-08T03:51:56;2.40;;;0.80;;
10900;SDS011;5503;53.208;10.392;2023-10-08T03:54:23;2.50;;;0.80;;
10900;SDS011;5503;53.208;10.392;2023-10-08T03:56:59;2.53;;;0.80;;
10900;SDS011;5503;53.208;10.392;2023-10-08T03:59:29;2.28;;;0.70;;
10900;SDS011;5503;53.208;10.392;2023-10-08T04:01:59;2.50;;;0.80;;
10900;SDS011;5503;53.208;10.392;2023-10-08T04:04:39;2.50;;;0.80;;
10900;SDS011;5503;53.208;10.392;2023-10-08T04:07:16;2.50;;;0.80;;
10900;SDS011;5503;53.208;10.392;2023-10-08T04:10:09;2.20;;;0.63;;
10900;SDS011;5503;53.208;10.392;2023-10-08T04:13:04;2.38;;;0.70;;
10900;SDS011;5503;53.208;10.392;2023-10-08T04:15:33;2.40;;;0.70;;
10900;SDS011;5503;53.208;10.392;2023-10-08T04:18:05;2.50;;;0.80;;
10900;SDS011;5503;53.208;10.392;2023-10-08T04:20:35;2.47;;;0.80;;
10900;SDS011;5503;53.208;10.392;2023-10-08T04:23:04;2.50;;;0.80;;
10900;SDS011;5503;53.208;10.392;2023-10-08T04:25:39;2.60;;;0.90;;
10900;SDS011;5503;53.208;10.392;2023-10-08T04:28:08;2.60;;;0.90;;
10900;SDS011;5503;53.208;10.392;2023-10-08T04:30:39;2.28;;;0.70;;
10900;SDS011;5503;53.208;10.392;2023-10-08T04:33:08;2.50;;;0.90;;
10900;SDS011;5503;53.208;10.392;2023-10-08T04:35:40;2.30;;;0.70;;
10900;SDS011;5503;53.208;10.392;2023-10-08T04:38:13;2.40;;;0.75;;
10900;SDS011;5503;53.208;10.392;2023-10-08T04:40:43;2.50;;;0.90;;
10900;SDS011;5503;53.208;10.392;2023-10-08T04:43:14;2.33;;;0.70;;
10900;SDS011;5503;53.208;10.392;2023-10-08T04:45:47;2.50;;;0.82;;
10900;SDS011;5503;53.208;10.392;2023-10-08T04:48:15;2.60;;;1.00;;
10900;SDS011;5503;53.208;10.392;2023-10-08T04:50:47;2.50;;;0.80;;
10900;SDS011;5503;53.208;10.392;2023-10-08T04:53:23;2.53;;;0.90;;
10900;SDS011;5503;53.208;10.392;2023-10-08T04:55:56;2.50;;;0.82;;
10900;SDS011;5503;53.208;10.392;2023-10-08T04:58:27;2.60;;;0.90;;
10900;SDS011;5503;53.208;10.392;2023-10-08T05:01:01;2.50;;;0.80;;
10900;SDS011;5503;53.208;10.392;2023-10-08T05:03:57;2.50;;;0.80;;
10900;SDS011;5503;53.208;10.392;2023-10-08T05:06:48;2.40;;;0.80;;
10900;SDS011;5503;53.208;10.392;2023-10-08T05:09:42;2.40;;;0.80;;
10900;SDS011;5503;53.208;10.392;2023-10-08T05:12:17;2.28;;;0.63;;
10900;SDS011;5503;53.208;10.392;2023-10-08T05:15:00;2.47;;;0.80;;
10900;SDS011;5503;53.208;10.392;2023-10-08T05:17:45;2.30;;;0.70;;
10900;SDS011;5503;53.208;10.392;2023-10-08T05:20:24;2.50;;;0.80;;
10900;SDS011;5503;53.208;10.392;2023-10-08T05:23:09;2.50;;;0.80;;
10900;SDS011;5503;53.208;10.392;2023-10-08T05:25:58;2.50;;;0.80;;
10900;SDS011;5503;53.208;10.392;2023-10-08T05:28:34;2.60;;;0.90;;
10900;SDS011;5503;53.208;10.392;2023-10-08T05:31:13;2.50;;;0.80;;
10900;SDS011;5503;53.208;10.392;2023-10-08T05:34:02;2.40;;;0.70;;
10900;SDS011;5503;53.208;10.392;2023-10-08T05:36:44;2.60;;;0.80;;
10900;SDS011;5503;53.208;10.392;2023-10-08T05:39:40;2.47;;;0.70;;
10900;SDS011;5503;53.208;10.392;2023-10-08T05:42:12;2.40;;;0.75;;
10900;SDS011;5503;53.208;10.392;2023-10-08T05:44:38;2.40;;;0.70;;
10900;SDS011;5503;53.208;10.392;2023-10-08T05:47:08;2.50;;;0.80;;
10900;SDS011;5503;53.208;10.392;2023-10-08T05:49:53;2.60;;;0.90;;
10900;SDS011;5503;53.208;10.392;2023-10-08T05:52:42;2.40;;;0.75;;
10900;SDS011;5503;53.208;10.392;2023-10-08T05:55:16;2.50;;;0.80;;
10900;SDS011;5503;53.208;10.392;2023-10-08T05:57:51;2.43;;;0.80;;
10900;SDS011;5503;53.208;10.392;2023-10-08T06:00:27;2.40;;;0.75;;
10900;SDS011;5503;53.208;10.392;2023-10-08T06:03:27;2.60;;;0.90;;
10900;SDS011;5503;53.208;10.392;2023-10-08T06:06:11;2.17;;;0.70;;
10900;SDS011;5503;53.208;10.392;2023-10-08T06:09:04;2.58;;;0.90;;
10900;SDS011;5503;53.208;10.392;2023-10-08T06:11:46;2.50;;;0.80;;
10900;SDS011;5503;53.208;10.392;2023-10-08T06:14:33;2.35;;;0.77;;
10900;SDS011;5503;53.208;10.392;2023-10-08T06:17:17;2.50;;;0.80;;
10900;SDS011;5503;53.208;10.392;2023-10-08T06:19:59;2.28;;;0.70;;
10900;SDS011;5503;53.208;10.392;2023-10-08T06:22:36;2.50;;;0.88;;
10900;SDS011;5503;53.208;10.392;2023-10-08T06:25:05;2.50;;;0.90;;
10900;SDS011;5503;53.208;10.392;2023-10-08T06:27:48;2.50;;;0.80;;
10900;SDS011;5503;53.208;10.392;2023-10-08T06:30:19;2.50;;;0.90;;
10900;SDS011;5503;53.208;10.392;2023-10-08T06:32:46;2.42;;;0.80;;
10900;SDS011;5503;53.208;10.392;2023-10-08T06:35:15;2.60;;;0.90;;
10900;SDS011;5503;53.208;10.392;2023-10-08T06:37:44;2.37;;;0.70;;
10900;SDS011;5503;53.208;10.392;2023-10-08T06:40:16;2.30;;;0.70;;
10900;SDS011;5503;53.208;10.392;2023-10-08T06:42:56;2.50;;;0.90;;
10900;SDS011;5503;53.208;10.392;2023-10-08T06:45:28;2.35;;;0.70;;
10900;SDS011;5503;53.208;10.392;2023-10-08T06:47:58;2.60;;;0.90;;
10900;SDS011;5503;53.208;10.392;2023-10-08T06:50:31;2.50;;;0.90;;
10900;SDS011;5503;53.208;10.392;2023-10-08T06:53:01;2.08;;;0.60;;
10900;SDS011;5503;53.208;10.392;2023-10-08T06:55:34;2.50;;;0.80;;
10900;SDS011;5503;53.208;10.392;2023-10-08T06:58:02;2.45;;;0.80;;
10900;SDS011;5503;53.208;10.392;2023-10-08T07:00:34;2.40;;;0.77;;
10900;SDS011;5503;53.208;10.392;2023-10-08T07:03:08;2.30;;;0.70;;
10900;SDS011;5503;53.208;10.392;2023-10-08T07:05:36;2.30;;;0.70;;
10900;SDS011;5503;53.208;10.392;2023-10-08T07:08:09;2.40;;;0.80;;
10900;SDS011;5503;53.208;10.392;2023-10-08T07:10:40;2.42;;;0.70;;
10900;SDS011;5503;53.208;10.392;2023-10-08T07:13:07;2.40;;;0.70;;
10900;SDS011;5503;53.208;10.392;2023-10-08T07:15:35;2.40;;;0.80;;
10900;SDS011;5503;53.208;10.392;2023-10-08T07:18:05;2.60;;;0.80;;
10900;SDS011;5503;53.208;10.392;2023-10-08T07:20:38;2.40;;;0.75;;
10900;SDS011;5503;53.208;10.392;2023-10-08T07:23:07;2.40;;;0.70;;
10900;SDS011;5503;53.208;10.392;2023-10-08T07:25:46;2.30;;;0.70;;
10900;SDS011;5503;53.208;10.392;2023-10-08T07:28:18;2.37;;;0.80;;
10900;SDS011;5503;53.208;10.392;2023-10-08T07:30:46;2.30;;;0.70;;
10900;SDS011;5503;53.208;10.392;2023-10-08T07:33:15;2.50;;;0.80;;
10900;SDS011;5503;53.208;10.392;2023-10-08T07:35:45;2.40;;;0.70;;
10900;SDS011;5503;53.208;10.392;2023-10-08T07:38:19;2.58;;;0.80;;
10900;SDS011;5503;53.208;10.392;2023-10-08T07:40:48;2.30;;;0.63;;
10900;SDS011;5503;53.208;10.392;2023-10-08T07:43:15;2.30;;;0.68;;
10900;SDS011;5503;53.208;10.392;2023-10-08T07:45:45;2.47;;;0.80;;
10900;SDS011;5503;53.208;10.392;2023-10-08T07:48:12;2.28;;;0.70;;
10900;SDS011;5503;53.208;10.392;2023-10-08T07:50:41;2.50;;;0.80;;
10900;SDS011;5503;53.208;10.392;2023-10-08T07:53:10;2.30;;;0.70;;
10900;SDS011;5503;53.208;10.392;2023-10-08T07:55:44;2.30;;;0.70;;
10900;SDS011;5503;53.208;10.392;2023-10-08T07:58:14;2.30;;;0.70;;
10900;SDS011;5503;53.208;10.392;2023-10-08T08:00:42;2.28;;;0.68;;
10900;SDS011;5503;53.208;10.392;2023-10-08T08:03:19;2.30;;;0.70;;
10900;SDS011;5503;53.208;10.392;2023-10-08T08:05:47;2.30;;;0.67;;
10900;SDS011;5503;53.208;10.392;2023-10-08T08:08:18;2.45;;;0.70;;
10900;SDS011;5503;53.208;10.392;2023-10-08T08:10:47;2.30;;;0.60;;
10900;SDS011;5503;53.208;10.392;2023-10-08T08:13:16;2.30;;;0.70;;
10900;SDS011;5503;53.208;10.392;2023-10-08T08:15:46;2.45;;;0.70;;
10900;SDS011;5503;53.208;10.392;2023-10-08T08:18:16;2.40;;;0.70;;
10900;SDS011;5503;53.208;10.392;2023-10-08T08:20:48;2.40;;;0.75;;
10900;SDS011;5503;53.208;10.392;2023-10-08T08:23:16;2.40;;;0.77;;
10900;SDS011;5503;53.208;10.392;2023-10-08T08:25:43;2.25;;;0.70;;
10900;SDS011;5503;53.208;10.392;2023-10-08T08:28:33;2.50;;;0.80;;
10900;SDS011;5503;53.208;10.392;2023-10-08T08:31:03;2.40;;;0.70;;
10900;SDS011;5503;53.208;10.392;2023-10-08T08:33:36;2.30;;;0.70;;
10900;SDS011;5503;53.208;10.392;2023-10-08T08:36:17;2.40;;;0.80;;
10900;SDS011;5503;53.208;10.392;2023-10-08T08:38:45;2.50;;;0.80;;
10900;SDS011;5503;53.208;10.392;2023-10-08T08:41:13;2.50;;;0.70;;
10900;SDS011;5503;53.208;10.392;2023-10-08T08:43:44;2.43;;;0.80;;
10900;SDS011;5503;53.208;10.392;2023-10-08T08:46:22;2.30;;;0.70;;
10900;SDS011;5503;53.208;10.392;2023-10-08T08:48:57;2.40;;;0.80;;
10900;SDS011;5503;53.208;10.392;2023-10-08T08:51:29;2.30;;;0.70;;
10900;SDS011;5503;53.208;10.392;2023-10-08T08:53:56;2.50;;;0.88;;
10900;SDS011;5503;53.208;10.392;2023-10-08T08:56:25;2.40;;;0.80;;
10900;SDS011;5503;53.208;10.392;2023-10-08T08:58:56;2.03;;;0.52;;
10900;SDS011;5503;53.208;10.392;2023-10-08T09:01:25;2.55;;;0.80;;
10900;SDS011;5503;53.208;10.392;2023-10-08T09:03:58;2.25;;;0.70;;
10900;SDS011;5503;53.208;10.392;2023-10-08T09:06:26;2.40;;;0.70;;
10900;SDS011;5503;53.208;10.392;2023-10-08T09:08:53;2.20;;;0.67;;
10900;SDS011;5503;53.208;10.392;2023-10-08T09:11:39;2.35;;;0.70;;
10900;SDS011;5503;53.208;10.392;2023-10-08T09:14:09;2.38;;;0.70;;
10900;SDS011;5503;53.208;10.392;2023-10-08T09:16:37;2.40;;;0.70;;
10900;SDS011;5503;53.208;10.392;2023-10-08T09:19:04;2.40;;;0.70;;
10900;SDS011;5503;53.208;10.392;2023-10-08T09:21:37;2.17;;;0.60;;
10900;SDS011;5503;53.208;10.392;2023-10-08T09:24:04;2.20;;;0.60;;
10900;SDS011;5503;53.208;10.392;2023-10-08T09:26:35;2.35;;;0.68;;
10900;SDS011;5503;53.208;10.392;2023-10-08T09:29:05;2.20;;;0.60;;
10900;SDS011;5503;53.208;10.392;2023-10-08T09:31:38;2.30;;;0.70;;
10900;SDS011;5503;53.208;10.392;2023-10-08T09:34:05;2.30;;;0.60;;
10900;SDS011;5503;53.208;10.392;2023-10-08T09:36:32;2.22;;;0.70;;
10900;SDS011;5503;53.208;10.392;2023-10-08T09:39:02;2.20;;;0.63;;
10900;SDS011;5503;53.208;10.392;2023-10-08T09:41:31;2.10;;;0.50;;
10900;SDS011;5503;53.208;10.392;2023-10-08T09:43:59;2.20;;;0.60;;
10900;SDS011;5503;53.208;10.392;2023-10-08T09:46:29;2.30;;;0.70;;
10900;SDS011;5503;53.208;10.392;2023-10-08T09:49:00;2.10;;;0.55;;
10900;SDS011;5503;53.208;10.392;2023-10-08T09:51:32;2.30;;;0.68;;
10900;SDS011;5503;53.208;10.392;2023-10-08T09:54:05;2.00;;;0.50;;
10900;SDS011;5503;53.208;10.392;2023-10-08T09:56:39;2.25;;;0.65;;
10900;SDS011;5503;53.208;10.392;2023-10-08T09:59:08;2.10;;;0.50;;
10900;SDS011;5503;53.208;10.392;2023-10-08T10:01:36;2.10;;;0.60;;
10900;SDS011;5503;53.208;10.392;2023-10-08T10:04:10;2.08;;;0.55;;
10900;SDS011;5503;53.208;10.392;2023-10-08T10:06:37;2.10;;;0.50;;
10900;SDS011;5503;53.208;10.392;2023-10-08T10:09:05;2.10;;;0.50;;
10900;SDS011;5503;53.208;10.392;2023-10-08T10:11:40;2.03;;;0.53;;
10900;SDS011;5503;53.208;10.392;2023-10-08T10:14:14;2.00;;;0.50;;
10900;SDS011;5503;53.208;10.392;2023-10-08T10:16:42;2.25;;;0.60;;
10900;SDS011;5503;53.208;10.392;2023-10-08T10:19:17;2.20;;;0.60;;
10900;SDS011;5503;53.208;10.392;2023-10-08T10:21:47;2.50;;;0.70;;
10900;SDS011;5503;53.208;10.392;2023-10-08T10:24:28;2.07;;;0.50;;
10900;SDS011;5503;53.208;10.392;2023-10-08T10:27:10;2.10;;;0.60;;
10900;SDS011;5503;53.208;10.392;2023-10-08T10:29:39;2.20;;;0.60;;
10900;SDS011;5503;53.208;10.392;2023-10-08T10:32:09;2.20;;;0.60;;
10900;SDS011;5503;53.208;10.392;2023-10-08T10:34:39;2.20;;;0.68;;
10900;SDS011;5503;53.208;10.392;2023-10-08T10:37:07;1.83;;;0.40;;
10900;SDS011;5503;53.208;10.392;2023-10-08T10:39:54;2.10;;;0.57;;
10900;SDS011;5503;53.208;10.392;2023-10-08T10:42:24;2.08;;;0.50;;
10900;SDS011;5503;53.208;10.392;2023-10-08T10:44:53;2.08;;;0.57;;
10900;SDS011;5503;53.208;10.392;2023-10-08T10:47:23;2.17;;;0.60;;
10900;SDS011;5503;53.208;10.392;2023-10-08T10:50:09;2.10;;;0.50;;
10900;SDS011;5503;53.208;10.392;2023-10-08T10:52:52;2.10;;;0.60;;
10900;SDS011;5503;53.208;10.392;2023-10-08T10:55:20;2.10;;;0.50;;
10900;SDS011;5503;53.208;10.392;2023-10-08T10:57:49;2.10;;;0.50;;
10900;SDS011;5503;53.208;10.392;2023-10-08T11:00:21;2.00;;;0.50;;
10900;SDS011;5503;53.208;10.392;2023-10-08T11:03:06;2.03;;;0.50;;
10900;SDS011;5503;53.208;10.392;2023-10-08T11:05:43;2.00;;;0.50;;
10900;SDS011;5503;53.208;10.392;2023-10-08T11:08:16;2.00;;;0.50;;
10900;SDS011;5503;53.208;10.392;2023-10-08T11:10:44;1.90;;;0.40;;
10900;SDS011;5503;53.208;10.392;2023-10-08T11:13:15;2.03;;;0.50;;
10900;SDS011;5503;53.208;10.392;2023-10-08T11:15:43;2.10;;;0.50;;
10900;SDS011;5503;53.208;10.392;2023-10-08T11:18:15;2.10;;;0.50;;
10900;SDS011;5503;53.208;10.392;2023-10-08T11:20:44;2.10;;;0.50;;
10900;SDS011;5503;53.208;10.392;2023-10-08T11:23:30;1.80;;;0.40;;
10900;SDS011;5503;53.208;10.392;2023-10-08T11:25:59;2.00;;;0.50;;
10900;SDS011;5503;53.208;10.392;2023-10-08T11:28:28;2.00;;;0.50;;
10900;SDS011;5503;53.208;10.392;2023-10-08T11:30:59;1.90;;;0.40;;
10900;SDS011;5503;53.208;10.392;2023-10-08T11:33:33;1.90;;;0.40;;
10900;SDS011;5503;53.208;10.392;2023-10-08T11:36:03;1.90;;;0.40;;
10900;SDS011;5503;53.208;10.392;2023-10-08T11:38:38;1.80;;;0.40;;
10900;SDS011;5503;53.208;10.392;2023-10-08T11:41:10;2.00;;;0.40;;
10900;SDS011;5503;53.208;10.392;2023-10-08T11:43:46;2.00;;;0.50;;
10900;SDS011;5503;53.208;10.392;2023-10-08T11:46:21;1.98;;;0.47;;
10900;SDS011;5503;53.208;10.392;2023-10-08T11:48:50;1.80;;;0.40;;
10900;SDS011;5503;53.208;10.392;2023-10-08T11:51:19;1.80;;;0.40;;
10900;SDS011;5503;53.208;10.392;2023-10-08T11:53:49;1.90;;;0.40;;
10900;SDS011;5503;53.208;10.392;2023-10-08T11:56:16;1.80;;;0.40;;
10900;SDS011;5503;53.208;10.392;2023-10-08T11:58:47;2.03;;;0.70;;
10900;SDS011;5503;53.208;10.392;2023-10-08T12:01:16;1.90;;;0.50;;
10900;SDS011;5503;53.208;10.392;2023-10-08T12:03:43;1.90;;;0.40;;
10900;SDS011;5503;53.208;10.392;2023-10-08T12:06:11;1.80;;;0.40;;
10900;SDS011;5503;53.208;10.392;2023-10-08T12:08:42;1.90;;;0.40;;
10900;SDS011;5503;53.208;10.392;2023-10-08T12:11:13;1.98;;;0.47;;
10900;SDS011;5503;53.208;10.392;2023-10-08T12:13:41;2.10;;;0.50;;
10900;SDS011;5503;53.208;10.392;2023-10-08T12:16:12;2.10;;;0.50;;
10900;SDS011;5503;53.208;10.392;2023-10-08T12:18:46;2.00;;;0.50;;
10900;SDS011;5503;53.208;10.392;2023-10-08T12:21:18;1.90;;;0.40;;
10900;SDS011;5503;53.208;10.392;2023-10-08T12:23:47;2.00;;;0.50;;
10900;SDS011;5503;53.208;10.392;2023-10-08T12:26:16;2.00;;;0.50;;
10900;SDS011;5503;53.208;10.392;2023-10-08T12:28:45;1.88;;;0.40;;
10900;SDS011;5503;53.208;10.392;2023-10-08T12:31:13;1.90;;;0.40;;
10900;SDS011;5503;53.208;10.392;2023-10-08T12:33:41;1.70;;;0.40;;
10900;SDS011;5503;53.208;10.392;2023-10-08T12:36:09;1.90;;;0.50;;
10900;SDS011;5503;53.208;10.392;2023-10-08T12:38:37;1.85;;;0.40;;
10900;SDS011;5503;53.208;10.392;2023-10-08T12:41:07;2.00;;;0.50;;
10900;SDS011;5503;53.208;10.392;2023-10-08T12:43:38;1.60;;;0.40;;
10900;SDS011;5503;53.208;10.392;2023-10-08T12:46:07;1.80;;;0.40;;
10900;SDS011;5503;53.208;10.392;2023-10-08T12:48:43;1.90;;;0.50;;
10900;SDS011;5503;53.208;10.392;2023-10-08T12:51:12;1.90;;;0.40;;
10900;SDS011;5503;53.208;10.392;2023-10-08T12:53:43;1.70;;;0.40;;
10900;SDS011;5503;53.208;10.392;2023-10-08T12:56:17;1.80;;;0.40;;
10900;SDS011;5503;53.208;10.392;2023-10-08T12:58:47;1.67;;;0.40;;
10900;SDS011;5503;53.208;10.392;2023-10-08T13:01:19;2.00;;;0.45;;
10900;SDS011;5503;53.208;10.392;2023-10-08T13:03:46;2.03;;;0.50;;
10900;SDS011;5503;53.208;10.392;2023-10-08T13:06:19;1.98;;;0.50;;
10900;SDS011;5503;53.208;10.392;2023-10-08T13:08:48;1.80;;;0.40;;
10900;SDS011;5503;53.208;10.392;2023-10-08T13:11:19;2.00;;;0.45;;
10900;SDS011;5503;53.208;10.392;2023-10-08T13:13:48;2.08;;;0.50;;
10900;SDS011;5503;53.208;10.392;2023-10-08T13:16:16;2.10;;;0.50;;
10900;SDS011;5503;53.208;10.392;2023-10-08T13:18:43;2.00;;;0.50;;
10900;SDS011;5503;53.208;10.392;2023-10-08T13:21:10;2.03;;;0.50;;
10900;SDS011;5503;53.208;10.392;2023-10-08T13:23:38;2.08;;;0.57;;
10900;SDS011;5503;53.208;10.392;2023-10-08T13:26:06;2.00;;;0.50;;
10900;SDS011;5503;53.208;10.392;2023-10-08T13:28:35;2.00;;;0.50;;
10900;SDS011;5503;53.208;10.392;2023-10-08T13:31:02;2.00;;;0.50;;
10900;SDS011;5503;53.208;10.392;2023-10-08T13:33:35;2.10;;;0.50;;
10900;SDS011;5503;53.208;10.392;2023-10-08T13:36:04;1.90;;;0.40;;
10900;SDS011;5503;53.208;10.392;2023-10-08T13:38:33;2.00;;;0.50;;
10900;SDS011;5503;53.208;10.392;2023-10-08T13:41:02;1.83;;;0.40;;
10900;SDS011;5503;53.208;10.392;2023-10-08T13:43:32;2.00;;;0.50;;
10900;SDS011;5503;53.208;10.392;2023-10-08T13:46:04;2.03;;;0.50;;
10900;SDS011;5503;53.208;10.392;2023-10-08T13:48:37;2.00;;;0.50;;
10900;SDS011;5503;53.208;10.392;2023-10-08T13:51:05;2.00;;;0.50;;
10900;SDS011;5503;53.208;10.392;2023-10-08T13:53:38;2.00;;;0.50;;
10900;SDS011;5503;53.208;10.392;2023-10-08T13:56:06;2.00;;;0.40;;
10900;SDS011;5503;53.208;10.392;2023-10-08T13:58:36;2.00;;;0.50;;
10900;SDS011;5503;53.208;10.392;2023-10-08T14:01:08;2.10;;;0.50;;
10900;SDS011;5503;53.208;10.392;2023-10-08T14:03:44;2.20;;;0.60;;
10900;SDS011;5503;53.208;10.392;2023-10-08T14:06:12;1.90;;;0.50;;
10900;SDS011;5503;53.208;10.392;2023-10-08T14:08:41;2.10;;;0.50;;
10900;SDS011;5503;53.208;10.392;2023-10-08T14:11:16;2.00;;;0.50;;
10900;SDS011;5503;53.208;10.392;2023-10-08T14:13:43;2.10;;;0.55;;
10900;SDS011;5503;53.208;10.392;2023-10-08T14:16:14;2.15;;;0.60;;
10900;SDS011;5503;53.208;10.392;2023-10-08T14:18:43;2.00;;;0.50;;
10900;SDS011;5503;53.208;10.392;2023-10-08T14:21:16;2.20;;;0.68;;
10900;SDS011;5503;53.208;10.392;2023-10-08T14:23:43;2.00;;;0.50;;
10900;SDS011;5503;53.208;10.392;2023-10-08T14:26:12;2.00;;;0.50;;
10900;SDS011;5503;53.208;10.392;2023-10-08T14:28:41;2.10;;;0.52;;
10900;SDS011;5503;53.208;10.392;2023-10-08T14:31:17;2.10;;;0.50;;
10900;SDS011;5503;53.208;10.392;2023-10-08T14:33:47;2.08;;;0.50;;
10900;SDS011;5503;53.208;10.392;2023-10-08T14:36:29;2.03;;;0.57;;
10900;SDS011;5503;53.208;10.392;2023-10-08T14:39:14;2.00;;;0.50;;
10900;SDS011;5503;53.208;10.392;2023-10-08T14:42:10;2.20;;;0.60;;
10900;SDS011;5503;53.208;10.392;2023-10-08T14:44:55;2.03;;;0.50;;
10900;SDS011;5503;53.208;10.392;2023-10-08T14:47:24;2.00;;;0.50;;
10900;SDS011;5503;53.208;10.392;2023-10-08T14:49:51;2.10;;;0.50;;
10900;SDS011;5503;53.208;10.392;2023-10-08T14:52:18;2.00;;;0.50;;
10900;SDS011;5503;53.208;10.392;2023-10-08T14:54:46;2.00;;;0.50;;
10900;SDS011;5503;53.208;10.392;2023-10-08T14:57:13;1.92;;;0.50;;
10900;SDS011;5503;53.208;10.392;2023-10-08T14:59:40;2.10;;;0.50;;
10900;SDS011;5503;53.208;10.392;2023-10-08T15:02:07;2.20;;;0.60;;
10900;SDS011;5503;53.208;10.392;2023-10-08T15:04:37;2.10;;;0.60;;
10900;SDS011;5503;53.208;10.392;2023-10-08T15:07:04;2.10;;;0.50;;
10900;SDS011;5503;53.208;10.392;2023-10-08T15:09:33;2.10;;;0.50;;
10900;SDS011;5503;53.208;10.392;2023-10-08T15:12:01;2.20;;;0.60;;
10900;SDS011;5503;53.208;10.392;2023-10-08T15:14:28;2.00;;;0.40;;
10900;SDS011;5503;53.208;10.392;2023-10-08T15:16:56;2.10;;;0.57;;
10900;SDS011;5503;53.208;10.392;2023-10-08T15:19:23;2.17;;;0.60;;